createdAt,value
2023-04-18T00:00:11.182Z,0.00
2023-04-18T00:01:11.170Z,0.00
2023-04-18T00:02:11.274Z,0.00
2023-04-18T00:03:11.328Z,0.00
2023-04-18T00:04:11.549Z,0.00
2023-04-18T00:05:11.199Z,0.00
2023-04-18T00:06:11.119Z,0.00
2023-04-18T00:07:11.129Z,0.00
2023-04-18T00:08:11.123Z,0.00
2023-04-18T00:09:11.207Z,0.00
2023-04-18T00:10:11.085Z,0.00
2023-04-18T00:11:11.115Z,0.00
2023-04-18T00:12:11.049Z,0.00
2023-04-18T00:13:11.056Z,0.00
2023-04-18T00:14:11.155Z,0.00
2023-04-18T00:15:11.030Z,0.00
2023-04-18T00:16:11.016Z,0.00
2023-04-18T00:17:11.231Z,0.00
2023-04-18T00:18:10.992Z,0.00
2023-04-18T00:19:10.971Z,0.00
2023-04-18T00:20:10.987Z,0.00
2023-04-18T00:21:11.012Z,0.00
2023-04-18T00:22:10.948Z,0.00
2023-04-18T00:23:12.841Z,0.00
2023-04-18T00:24:10.941Z,0.00
2023-04-18T00:25:10.899Z,0.00
2023-04-18T00:26:10.945Z,0.00
2023-04-18T00:27:11.386Z,0.00
2023-04-18T00:28:10.877Z,0.00
2023-04-18T00:29:10.852Z,0.00
2023-04-18T00:30:10.884Z,0.00
2023-04-18T00:31:10.880Z,0.00
2023-04-18T00:32:10.876Z,0.00
2023-04-18T00:33:10.818Z,0.00
2023-04-18T00:34:10.849Z,0.00
2023-04-18T00:35:10.812Z,0.00
2023-04-18T00:36:10.813Z,0.00
2023-04-18T00:37:10.802Z,0.00
2023-04-18T00:38:10.797Z,0.00
2023-04-18T00:39:10.790Z,0.00
2023-04-18T00:40:10.750Z,0.00
2023-04-18T00:41:10.759Z,0.00
2023-04-18T00:42:10.720Z,0.00
2023-04-18T00:43:10.757Z,0.00
2023-04-18T00:44:10.702Z,0.00
2023-04-18T00:45:10.715Z,0.00
2023-04-18T00:46:10.729Z,0.00
2023-04-18T00:47:10.679Z,0.00
2023-04-18T00:48:10.657Z,0.00
2023-04-18T00:49:10.680Z,0.00
2023-04-18T00:50:10.653Z,0.00
2023-04-18T00:51:10.644Z,0.00
2023-04-18T00:52:10.623Z,0.00
2023-04-18T00:53:10.616Z,0.00
2023-04-18T00:54:10.656Z,0.00
2023-04-18T00:55:10.592Z,0.00
2023-04-18T00:56:10.594Z,0.00
2023-04-18T00:57:10.583Z,0.00
2023-04-18T00:58:10.563Z,0.00
2023-04-18T00:59:10.586Z,0.00
2023-04-18T01:00:10.556Z,0.00
2023-04-18T01:01:10.570Z,0.00
2023-04-18T01:02:10.527Z,0.00
2023-04-18T01:03:10.820Z,0.00
2023-04-18T01:04:10.556Z,0.00
2023-04-18T01:05:10.504Z,0.00
2023-04-18T01:06:10.454Z,0.00
2023-04-18T01:07:10.467Z,0.00
2023-04-18T01:08:10.482Z,0.00
2023-04-18T01:09:10.492Z,0.00
2023-04-18T01:10:10.461Z,0.00
2023-04-18T01:11:10.446Z,0.00
2023-04-18T01:12:10.401Z,0.00
2023-04-18T01:13:10.422Z,0.00
2023-04-18T01:14:10.499Z,0.00
2023-04-18T01:15:10.402Z,0.00
2023-04-18T01:16:10.502Z,0.00
2023-04-18T01:17:10.364Z,0.00
2023-04-18T01:18:10.347Z,0.00
2023-04-18T01:19:10.345Z,0.00
2023-04-18T01:20:10.331Z,0.00
2023-04-18T01:21:10.326Z,0.00
2023-04-18T01:22:10.295Z,0.00
2023-04-18T01:23:10.311Z,0.00
2023-04-18T01:24:10.403Z,0.00
2023-04-18T01:25:10.293Z,0.00
2023-04-18T01:26:10.248Z,0.00
2023-04-18T01:27:10.271Z,0.00
2023-04-18T01:28:10.243Z,0.00
2023-04-18T01:29:10.281Z,0.00
2023-04-18T01:30:10.217Z,0.00
2023-04-18T01:31:10.284Z,0.00
2023-04-18T01:32:10.194Z,0.00
2023-04-18T01:33:10.193Z,0.00
2023-04-18T01:34:10.227Z,0.00
2023-04-18T01:35:10.185Z,0.00
2023-04-18T01:36:10.151Z,0.00
2023-04-18T01:37:10.160Z,0.00
2023-04-18T01:38:10.138Z,0.00
2023-04-18T01:39:10.138Z,0.00
2023-04-18T01:40:10.139Z,0.00
2023-04-18T01:41:10.131Z,0.00
2023-04-18T01:42:10.119Z,0.00
2023-04-18T01:43:10.081Z,0.00
2023-04-18T01:44:10.082Z,0.00
2023-04-18T01:45:10.078Z,0.00
2023-04-18T01:46:10.122Z,0.00
2023-04-18T01:47:10.093Z,0.00
2023-04-18T01:48:10.066Z,0.00
2023-04-18T01:49:10.056Z,0.00
2023-04-18T01:50:10.015Z,0.00
2023-04-18T01:51:09.998Z,0.00
2023-04-18T01:52:10.023Z,0.00
2023-04-18T01:53:09.975Z,0.00
2023-04-18T01:54:09.965Z,0.00
2023-04-18T01:55:09.972Z,0.00
2023-04-18T01:56:09.935Z,0.00
2023-04-18T01:57:09.980Z,0.00
2023-04-18T01:58:09.932Z,0.00
2023-04-18T01:59:09.918Z,0.00
2023-04-18T02:00:09.963Z,0.00
2023-04-18T02:01:09.928Z,0.00
2023-04-18T02:02:09.924Z,0.00
2023-04-18T02:03:09.981Z,0.00
2023-04-18T02:04:09.904Z,0.00
2023-04-18T02:05:09.881Z,0.00
2023-04-18T02:06:09.851Z,0.00
2023-04-18T02:07:09.849Z,0.00
2023-04-18T02:08:09.823Z,0.00
2023-04-18T02:09:09.832Z,0.00
2023-04-18T02:10:09.826Z,0.00
2023-04-18T02:11:09.806Z,0.00
2023-04-18T02:12:09.785Z,0.00
2023-04-18T02:13:09.784Z,0.00
2023-04-18T02:14:09.809Z,0.00
2023-04-18T02:15:09.760Z,0.00
2023-04-18T02:16:09.784Z,0.00
2023-04-18T02:17:09.755Z,0.00
2023-04-18T02:18:09.719Z,0.00
2023-04-18T02:19:09.718Z,0.00
2023-04-18T02:20:09.708Z,0.00
2023-04-18T02:21:09.696Z,0.00
2023-04-18T02:22:09.711Z,0.00
2023-04-18T02:23:09.686Z,0.00
2023-04-18T02:24:09.689Z,0.00
2023-04-18T02:25:09.653Z,0.00
2023-04-18T02:26:09.646Z,0.00
2023-04-18T02:27:09.650Z,0.00
2023-04-18T02:28:09.638Z,0.00
2023-04-18T02:29:09.598Z,0.00
2023-04-18T02:30:09.597Z,0.00
2023-04-18T02:31:09.673Z,0.00
2023-04-18T02:32:09.704Z,0.00
2023-04-18T02:33:09.586Z,0.00
2023-04-18T02:34:09.617Z,0.00
2023-04-18T02:35:09.591Z,0.00
2023-04-18T02:36:09.550Z,0.00
2023-04-18T02:37:09.534Z,0.00
2023-04-18T02:38:09.550Z,0.00
2023-04-18T02:39:09.565Z,0.00
2023-04-18T02:40:09.480Z,0.00
2023-04-18T02:41:09.524Z,0.00
2023-04-18T02:42:09.593Z,0.00
2023-04-18T02:43:09.503Z,0.00
2023-04-18T02:44:09.937Z,0.00
2023-04-18T02:45:09.452Z,0.00
2023-04-18T02:46:09.543Z,0.00
2023-04-18T02:47:09.563Z,0.00
2023-04-18T02:48:09.478Z,0.00
2023-04-18T02:49:09.501Z,0.00
2023-04-18T02:50:09.450Z,0.00
2023-04-18T02:51:09.427Z,0.00
2023-04-18T02:52:09.388Z,0.00
2023-04-18T02:53:09.575Z,0.00
2023-04-18T02:54:09.384Z,0.00
2023-04-18T02:55:09.360Z,0.00
2023-04-18T02:56:09.589Z,0.00
2023-04-18T02:57:09.394Z,0.00
2023-04-18T02:58:09.388Z,0.00
2023-04-18T02:59:09.331Z,0.00
2023-04-18T03:00:09.314Z,0.00
2023-04-18T03:01:09.339Z,0.00
2023-04-18T03:02:09.462Z,0.00
2023-04-18T03:03:09.333Z,0.00
2023-04-18T03:04:09.252Z,0.00
2023-04-18T03:05:10.369Z,0.00
2023-04-18T03:06:09.329Z,0.00
2023-04-18T03:07:09.274Z,0.00
2023-04-18T03:08:09.398Z,0.00
2023-04-18T03:09:09.381Z,0.00
2023-04-18T03:10:09.360Z,0.00
2023-04-18T03:11:09.299Z,0.00
2023-04-18T03:12:09.208Z,0.00
2023-04-18T03:13:09.291Z,0.00
2023-04-18T03:14:09.318Z,0.00
2023-04-18T03:15:09.200Z,0.00
2023-04-18T03:16:09.199Z,0.00
2023-04-18T03:17:09.253Z,0.00
2023-04-18T03:18:09.162Z,0.00
2023-04-18T03:19:09.302Z,0.00
2023-04-18T03:20:09.120Z,0.00
2023-04-18T03:21:09.083Z,0.00
2023-04-18T03:22:09.069Z,0.00
2023-04-18T03:23:09.421Z,0.00
2023-04-18T03:24:11.553Z,0.00
2023-04-18T03:25:09.022Z,0.00
2023-04-18T03:26:09.053Z,0.00
2023-04-18T03:27:09.053Z,0.00
2023-04-18T03:28:09.016Z,0.00
2023-04-18T03:29:09.010Z,0.00
2023-04-18T03:30:08.985Z,0.00
2023-04-18T03:31:08.974Z,0.00
2023-04-18T03:32:08.949Z,0.00
2023-04-18T03:33:08.989Z,0.00
2023-04-18T03:34:08.926Z,0.00
2023-04-18T03:35:08.915Z,0.00
2023-04-18T03:36:08.892Z,0.00
2023-04-18T03:37:08.882Z,0.00
2023-04-18T03:38:08.895Z,0.00
2023-04-18T03:39:08.869Z,0.00
2023-04-18T03:40:08.890Z,0.00
2023-04-18T03:41:08.868Z,0.00
2023-04-18T03:42:08.841Z,0.00
2023-04-18T03:43:08.807Z,0.00
2023-04-18T03:44:08.805Z,0.00
2023-04-18T03:45:08.792Z,0.00
2023-04-18T03:46:08.795Z,0.00
2023-04-18T03:47:09.047Z,0.00
2023-04-18T03:48:08.770Z,0.00
2023-04-18T03:49:08.748Z,0.00
2023-04-18T03:50:08.760Z,0.00
2023-04-18T03:51:08.736Z,0.00
2023-04-18T03:52:09.038Z,0.00
2023-04-18T03:53:08.705Z,0.00
2023-04-18T03:54:08.702Z,0.00
2023-04-18T03:55:08.692Z,0.00
2023-04-18T03:56:08.678Z,0.00
2023-04-18T03:57:08.688Z,0.00
2023-04-18T03:58:08.889Z,0.00
2023-04-18T03:59:08.644Z,0.00
2023-04-18T04:00:08.624Z,0.00
2023-04-18T04:01:08.562Z,0.00
2023-04-18T04:02:08.726Z,0.00
2023-04-18T04:03:08.729Z,0.00
2023-04-18T04:04:08.668Z,0.00
2023-04-18T04:05:08.659Z,0.00
2023-04-18T04:06:08.543Z,0.00
2023-04-18T04:07:08.565Z,0.00
2023-04-18T04:08:08.593Z,0.00
2023-04-18T04:09:08.502Z,0.00
2023-04-18T04:10:08.473Z,0.00
2023-04-18T04:11:08.650Z,0.00
2023-04-18T04:12:08.473Z,0.00
2023-04-18T04:13:08.465Z,0.00
2023-04-18T04:14:08.545Z,0.00
2023-04-18T04:15:08.444Z,0.00
2023-04-18T04:16:08.473Z,0.00
2023-04-18T04:17:08.426Z,0.00
2023-04-18T04:18:08.451Z,0.00
2023-04-18T04:19:08.523Z,0.00
2023-04-18T04:20:08.412Z,0.00
2023-04-18T04:21:08.368Z,0.00
2023-04-18T04:22:08.353Z,0.00
2023-04-18T04:23:08.330Z,0.00
2023-04-18T04:24:08.355Z,0.00
2023-04-18T04:25:08.344Z,0.00
2023-04-18T04:26:08.377Z,0.00
2023-04-18T04:27:08.321Z,0.00
2023-04-18T04:28:08.321Z,0.00
2023-04-18T04:29:08.274Z,0.00
2023-04-18T04:30:08.288Z,0.00
2023-04-18T04:31:08.410Z,0.00
2023-04-18T04:32:08.428Z,0.00
2023-04-18T04:33:08.221Z,0.00
2023-04-18T04:34:08.229Z,0.00
2023-04-18T04:35:08.381Z,0.00
2023-04-18T04:36:08.218Z,0.00
2023-04-18T04:37:08.278Z,0.00
2023-04-18T04:38:08.182Z,0.00
2023-04-18T04:39:08.156Z,0.00
2023-04-18T04:40:08.175Z,0.00
2023-04-18T04:41:08.161Z,0.00
2023-04-18T04:42:08.138Z,0.00
2023-04-18T04:43:08.116Z,0.00
2023-04-18T04:44:08.112Z,0.00
2023-04-18T04:45:08.128Z,5.62
2023-04-18T04:46:08.184Z,5.62
2023-04-18T04:47:08.123Z,5.62
2023-04-18T04:48:08.194Z,5.62
2023-04-18T04:49:08.080Z,5.62
2023-04-18T04:50:08.061Z,5.62
2023-04-18T04:51:08.151Z,5.62
2023-04-18T04:52:08.084Z,5.62
2023-04-18T04:53:08.062Z,5.62
2023-04-18T04:54:08.022Z,5.62
2023-04-18T04:55:08.032Z,5.62
2023-04-18T04:56:08.005Z,5.62
2023-04-18T04:57:08.213Z,5.62
2023-04-18T04:58:08.056Z,11.25
2023-04-18T04:59:08.128Z,11.25
2023-04-18T05:00:08.175Z,11.25
2023-04-18T05:01:08.021Z,11.25
2023-04-18T05:02:08.396Z,11.25
2023-04-18T05:03:08.422Z,11.25
2023-04-18T05:04:08.224Z,11.25
2023-04-18T05:05:08.165Z,11.25
2023-04-18T05:06:07.971Z,11.25
2023-04-18T05:07:08.125Z,11.25
2023-04-18T05:08:07.983Z,11.25
2023-04-18T05:09:07.881Z,11.25
2023-04-18T05:10:08.280Z,11.25
2023-04-18T05:11:07.863Z,11.25
2023-04-18T05:12:07.942Z,16.88
2023-04-18T05:13:07.809Z,16.88
2023-04-18T05:14:07.811Z,16.88
2023-04-18T05:15:07.799Z,16.88
2023-04-18T05:16:07.779Z,16.88
2023-04-18T05:17:07.830Z,16.88
2023-04-18T05:18:07.846Z,22.50
2023-04-18T05:19:07.806Z,22.50
2023-04-18T05:20:07.815Z,22.50
2023-04-18T05:21:07.722Z,22.50
2023-04-18T05:22:07.704Z,28.12
2023-04-18T05:23:07.683Z,28.12
2023-04-18T05:24:07.720Z,28.12
2023-04-18T05:25:07.842Z,28.12
2023-04-18T05:26:07.668Z,28.12
2023-04-18T05:27:07.677Z,28.12
2023-04-18T05:28:07.633Z,28.12
2023-04-18T05:29:07.676Z,28.12
2023-04-18T05:30:07.717Z,28.12
2023-04-18T05:31:08.003Z,28.12
2023-04-18T05:32:07.780Z,33.75
2023-04-18T05:33:07.793Z,33.75
2023-04-18T05:34:07.582Z,28.12
2023-04-18T05:35:07.575Z,28.12
2023-04-18T05:36:07.657Z,28.12
2023-04-18T05:37:07.637Z,28.12
2023-04-18T05:38:07.568Z,28.12
2023-04-18T05:39:07.528Z,28.12
2023-04-18T05:40:07.554Z,28.12
2023-04-18T05:41:07.492Z,28.12
2023-04-18T05:42:07.483Z,28.12
2023-04-18T05:43:07.494Z,28.12
2023-04-18T05:44:07.515Z,33.75
2023-04-18T05:45:07.498Z,33.75
2023-04-18T05:46:07.483Z,33.75
2023-04-18T05:47:07.443Z,33.75
2023-04-18T05:48:07.460Z,33.75
2023-04-18T05:49:07.414Z,33.75
2023-04-18T05:50:07.452Z,33.75
2023-04-18T05:51:07.778Z,28.12
2023-04-18T05:52:07.401Z,28.12
2023-04-18T05:53:07.531Z,33.75
2023-04-18T05:54:07.377Z,33.75
2023-04-18T05:55:07.357Z,33.75
2023-04-18T05:56:07.354Z,33.75
2023-04-18T05:57:07.360Z,33.75
2023-04-18T05:58:07.339Z,33.75
2023-04-18T05:59:07.316Z,33.75
2023-04-18T06:00:07.297Z,28.12
2023-04-18T06:01:07.282Z,33.75
2023-04-18T06:02:07.351Z,33.75
2023-04-18T06:03:10.103Z,33.75
2023-04-18T06:04:07.410Z,33.75
2023-04-18T06:05:07.433Z,33.75
2023-04-18T06:06:07.249Z,33.75
2023-04-18T06:07:07.387Z,28.12
2023-04-18T06:08:07.211Z,33.75
2023-04-18T06:09:07.214Z,33.75
2023-04-18T06:10:07.301Z,33.75
2023-04-18T06:11:07.176Z,39.38
2023-04-18T06:12:07.263Z,39.38
2023-04-18T06:13:07.157Z,39.38
2023-04-18T06:14:07.220Z,39.38
2023-04-18T06:15:07.192Z,39.38
2023-04-18T06:16:07.183Z,39.38
2023-04-18T06:17:07.118Z,39.38
2023-04-18T06:18:07.176Z,33.75
2023-04-18T06:19:07.092Z,33.75
2023-04-18T06:20:07.115Z,33.75
2023-04-18T06:21:07.068Z,33.75
2023-04-18T06:22:07.138Z,33.75
2023-04-18T06:23:07.057Z,33.75
2023-04-18T06:24:07.054Z,33.75
2023-04-18T06:25:07.008Z,33.75
2023-04-18T06:26:07.128Z,33.75
2023-04-18T06:28:06.996Z,33.75
2023-04-18T06:29:07.067Z,33.75
2023-04-18T06:30:06.999Z,33.75
2023-04-18T06:31:06.972Z,28.12
2023-04-18T06:32:07.011Z,33.75
2023-04-18T06:33:07.000Z,33.75
2023-04-18T06:34:06.975Z,33.75
2023-04-18T06:35:06.916Z,33.75
2023-04-18T06:36:07.438Z,33.75
2023-04-18T06:37:06.954Z,33.75
2023-04-18T06:38:06.904Z,28.12
2023-04-18T06:39:06.958Z,22.50
2023-04-18T06:40:06.938Z,22.50
2023-04-18T06:41:06.877Z,22.50
2023-04-18T06:42:06.857Z,28.12
2023-04-18T06:43:06.875Z,28.12
2023-04-18T06:44:07.288Z,28.12
2023-04-18T06:45:06.833Z,28.12
2023-04-18T06:46:06.985Z,28.12
2023-04-18T06:47:07.107Z,28.12
2023-04-18T06:48:07.069Z,28.12
2023-04-18T06:49:07.216Z,28.12
2023-04-18T06:50:06.822Z,33.75
2023-04-18T06:51:06.756Z,33.75
2023-04-18T06:52:06.737Z,33.75
2023-04-18T06:53:06.705Z,33.75
2023-04-18T06:54:06.779Z,33.75
2023-04-18T06:55:07.598Z,33.75
2023-04-18T06:56:06.694Z,33.75
2023-04-18T06:57:06.683Z,39.38
2023-04-18T06:58:06.688Z,39.38
2023-04-18T06:59:06.645Z,33.75
2023-04-18T07:00:06.693Z,33.75
2023-04-18T07:01:06.656Z,39.38
2023-04-18T07:02:06.677Z,39.38
2023-04-18T07:03:08.093Z,39.38
2023-04-18T07:04:06.883Z,39.38
2023-04-18T07:05:06.619Z,39.38
2023-04-18T07:06:06.613Z,39.38
2023-04-18T07:07:06.570Z,39.38
2023-04-18T07:08:06.619Z,33.75
2023-04-18T07:09:06.561Z,28.12
2023-04-18T07:10:06.579Z,28.12
2023-04-18T07:11:06.574Z,22.50
2023-04-18T07:12:06.537Z,28.12
2023-04-18T07:13:06.554Z,28.12
2023-04-18T07:14:06.522Z,28.12
2023-04-18T07:15:06.556Z,28.12
2023-04-18T07:16:06.485Z,28.12
2023-04-18T07:17:06.647Z,28.12
2023-04-18T07:18:06.469Z,28.12
2023-04-18T07:19:06.445Z,28.12
2023-04-18T07:20:06.469Z,33.75
2023-04-18T07:21:06.456Z,33.75
2023-04-18T07:22:06.678Z,33.75
2023-04-18T07:23:06.424Z,33.75
2023-04-18T07:24:06.422Z,33.75
2023-04-18T07:25:06.394Z,28.12
2023-04-18T07:26:06.410Z,28.12
2023-04-18T07:27:06.364Z,28.12
2023-04-18T07:28:06.362Z,28.12
2023-04-18T07:29:06.343Z,28.12
2023-04-18T07:30:06.346Z,33.75
2023-04-18T07:31:06.371Z,39.38
2023-04-18T07:32:08.126Z,39.38
2023-04-18T07:33:06.328Z,39.38
2023-04-18T07:34:06.281Z,39.38
2023-04-18T07:35:06.305Z,45.00
2023-04-18T07:36:06.310Z,45.00
2023-04-18T07:37:06.241Z,50.62
2023-04-18T07:38:06.410Z,50.62
2023-04-18T07:39:06.220Z,50.62
2023-04-18T07:40:06.230Z,56.25
2023-04-18T07:41:06.235Z,61.88
2023-04-18T07:42:06.218Z,67.50
2023-04-18T07:43:06.257Z,67.50
2023-04-18T07:44:06.186Z,67.50
2023-04-18T07:45:06.160Z,67.50
2023-04-18T07:46:06.690Z,67.50
2023-04-18T07:47:06.232Z,67.50
2023-04-18T07:48:06.231Z,61.88
2023-04-18T07:49:06.131Z,61.88
2023-04-18T07:50:06.146Z,61.88
2023-04-18T07:51:06.179Z,56.25
2023-04-18T07:52:06.099Z,56.25
2023-04-18T07:53:06.173Z,56.25
2023-04-18T07:54:06.090Z,56.25
2023-04-18T07:55:06.089Z,50.62
2023-04-18T07:56:08.604Z,50.62
2023-04-18T07:57:06.055Z,50.62
2023-04-18T07:58:06.097Z,56.25
2023-04-18T07:59:06.071Z,56.25
2023-04-18T08:00:06.082Z,56.25
2023-04-18T08:01:06.010Z,50.62
2023-04-18T08:02:05.996Z,50.62
2023-04-18T08:03:06.071Z,50.62
2023-04-18T08:04:06.116Z,50.62
2023-04-18T08:05:06.367Z,45.00
2023-04-18T08:06:06.076Z,50.62
2023-04-18T08:07:05.955Z,50.62
2023-04-18T08:08:06.279Z,56.25
2023-04-18T08:09:05.972Z,56.25
2023-04-18T08:10:05.926Z,50.62
2023-04-18T08:11:05.961Z,50.62
2023-04-18T08:12:05.903Z,50.62
2023-04-18T08:13:05.916Z,56.25
2023-04-18T08:14:05.880Z,56.25
2023-04-18T08:15:05.874Z,61.88
2023-04-18T08:16:05.866Z,61.88
2023-04-18T08:17:05.841Z,56.25
2023-04-18T08:18:05.854Z,50.62
2023-04-18T08:19:05.832Z,50.62
2023-04-18T08:20:05.832Z,50.62
2023-04-18T08:21:05.916Z,56.25
2023-04-18T08:22:05.780Z,61.88
2023-04-18T08:23:09.545Z,61.88
2023-04-18T08:24:05.768Z,61.88
2023-04-18T08:25:06.003Z,67.50
2023-04-18T08:26:05.748Z,67.50
2023-04-18T08:27:05.741Z,67.50
2023-04-18T08:28:05.699Z,67.50
2023-04-18T08:29:05.720Z,67.50
2023-04-18T08:30:05.695Z,73.12
2023-04-18T08:31:05.761Z,78.75
2023-04-18T08:32:05.760Z,78.75
2023-04-18T08:33:05.732Z,78.75
2023-04-18T08:34:05.655Z,78.75
2023-04-18T08:35:05.648Z,78.75
2023-04-18T08:36:06.315Z,73.12
2023-04-18T08:37:05.689Z,67.50
2023-04-18T08:38:06.725Z,67.50
2023-04-18T08:39:05.720Z,73.12
2023-04-18T08:40:05.741Z,67.50
2023-04-18T08:41:05.822Z,61.88
2023-04-18T08:42:05.675Z,50.62
2023-04-18T08:43:05.569Z,45.00
2023-04-18T08:44:05.730Z,39.38
2023-04-18T08:45:05.628Z,39.38
2023-04-18T08:46:06.100Z,45.00
2023-04-18T08:47:05.540Z,50.62
2023-04-18T08:48:05.582Z,56.25
2023-04-18T08:49:05.539Z,61.88
2023-04-18T08:50:05.567Z,61.88
2023-04-18T08:51:05.511Z,67.50
2023-04-18T08:52:05.586Z,73.12
2023-04-18T08:53:05.472Z,67.50
2023-04-18T08:54:05.450Z,73.12
2023-04-18T08:55:05.427Z,67.50
2023-04-18T08:56:05.707Z,61.88
2023-04-18T08:57:05.472Z,61.88
2023-04-18T08:58:05.419Z,61.88
2023-04-18T08:59:05.438Z,61.88
2023-04-18T09:00:05.645Z,61.88
2023-04-18T09:01:05.446Z,61.88
2023-04-18T09:02:05.456Z,67.50
2023-04-18T09:03:05.441Z,73.12
2023-04-18T09:04:05.387Z,78.75
2023-04-18T09:05:05.326Z,78.75
2023-04-18T09:06:05.306Z,78.75
2023-04-18T09:07:05.343Z,78.75
2023-04-18T09:08:05.272Z,78.75
2023-04-18T09:09:05.314Z,84.38
2023-04-18T09:10:05.315Z,84.38
2023-04-18T09:11:05.267Z,90.00
2023-04-18T09:12:05.261Z,95.62
2023-04-18T09:13:05.259Z,95.62
2023-04-18T09:14:05.264Z,95.62
2023-04-18T09:15:05.227Z,95.62
2023-04-18T09:16:05.192Z,90.00
2023-04-18T09:17:05.251Z,95.62
2023-04-18T09:18:05.198Z,95.62
2023-04-18T09:19:06.307Z,95.62
2023-04-18T09:20:05.280Z,90.00
2023-04-18T09:21:05.184Z,90.00
2023-04-18T09:22:05.162Z,95.62
2023-04-18T09:23:05.148Z,95.62
2023-04-18T09:24:05.146Z,106.88
2023-04-18T09:25:05.192Z,118.12
2023-04-18T09:26:05.155Z,123.75
2023-04-18T09:27:05.216Z,129.38
2023-04-18T09:28:05.179Z,140.62
2023-04-18T09:29:05.082Z,146.25
2023-04-18T09:30:05.181Z,146.25
2023-04-18T09:31:05.103Z,140.62
2023-04-18T09:32:05.114Z,129.38
2023-04-18T09:33:05.093Z,129.38
2023-04-18T09:34:05.059Z,146.25
2023-04-18T09:35:05.179Z,151.88
2023-04-18T09:36:05.030Z,151.88
2023-04-18T09:37:05.236Z,157.50
2023-04-18T09:38:04.970Z,151.88
2023-04-18T09:39:05.063Z,140.62
2023-04-18T09:40:05.122Z,140.62
2023-04-18T09:41:05.120Z,146.25
2023-04-18T09:42:05.001Z,157.50
2023-04-18T09:43:05.006Z,163.12
2023-04-18T09:44:04.907Z,168.75
2023-04-18T09:45:05.056Z,163.12
2023-04-18T09:46:04.899Z,163.12
2023-04-18T09:47:04.864Z,157.50
2023-04-18T09:48:05.983Z,151.88
2023-04-18T09:49:04.875Z,151.88
2023-04-18T09:50:04.889Z,157.50
2023-04-18T09:51:04.899Z,157.50
2023-04-18T09:52:04.806Z,151.88
2023-04-18T09:53:04.819Z,157.50
2023-04-18T09:54:04.883Z,157.50
2023-04-18T09:55:04.807Z,151.88
2023-04-18T09:56:04.816Z,163.12
2023-04-18T09:57:04.770Z,157.50
2023-04-18T09:58:05.885Z,151.88
2023-04-18T09:59:05.052Z,146.25
2023-04-18T10:00:05.202Z,163.12
2023-04-18T10:01:04.750Z,168.75
2023-04-18T10:02:04.884Z,163.12
2023-04-18T10:03:04.755Z,168.75
2023-04-18T10:04:04.726Z,196.88
2023-04-18T10:05:04.821Z,191.25
2023-04-18T10:06:04.823Z,202.50
2023-04-18T10:07:05.256Z,185.62
2023-04-18T10:08:04.702Z,163.12
2023-04-18T10:09:04.671Z,180.00
2023-04-18T10:10:04.610Z,157.50
2023-04-18T10:11:04.601Z,191.25
2023-04-18T10:12:04.600Z,140.62
2023-04-18T10:13:04.920Z,168.75
2023-04-18T10:14:04.747Z,202.50
2023-04-18T10:15:04.610Z,180.00
2023-04-18T10:16:04.597Z,196.88
2023-04-18T10:17:04.594Z,174.38
2023-04-18T10:18:06.078Z,157.50
2023-04-18T10:19:04.556Z,185.62
2023-04-18T10:20:04.526Z,180.00
2023-04-18T10:21:04.503Z,163.12
2023-04-18T10:22:04.583Z,163.12
2023-04-18T10:23:04.571Z,174.38
2023-04-18T10:24:04.497Z,208.12
2023-04-18T10:25:04.475Z,185.62
2023-04-18T10:26:04.506Z,219.38
2023-04-18T10:27:04.721Z,236.25
2023-04-18T10:28:04.470Z,196.88
2023-04-18T10:29:04.456Z,213.75
2023-04-18T10:30:04.551Z,196.88
2023-04-18T10:31:04.458Z,202.50
2023-04-18T10:32:04.410Z,180.00
2023-04-18T10:33:12.705Z,168.75
2023-04-18T10:34:17.741Z,174.38
2023-04-18T10:35:05.885Z,174.38
2023-04-18T10:36:05.265Z,208.12
2023-04-18T10:37:04.361Z,196.88
2023-04-18T10:38:04.385Z,208.12
2023-04-18T10:39:04.384Z,225.00
2023-04-18T10:40:04.895Z,202.50
2023-04-18T10:41:04.397Z,213.75
2023-04-18T10:42:04.304Z,191.25
2023-04-18T10:43:04.817Z,191.25
2023-04-18T10:44:04.707Z,180.00
2023-04-18T10:45:04.283Z,174.38
2023-04-18T10:46:04.293Z,157.50
2023-04-18T10:47:04.316Z,157.50
2023-04-18T10:48:04.793Z,157.50
2023-04-18T10:49:04.270Z,140.62
2023-04-18T10:50:06.239Z,118.12
2023-04-18T10:51:04.205Z,106.88
2023-04-18T10:52:05.397Z,101.25
2023-04-18T10:53:04.170Z,101.25
2023-04-18T10:54:06.701Z,95.62
2023-04-18T10:55:04.150Z,78.75
2023-04-18T10:56:04.175Z,73.12
2023-04-18T10:57:04.203Z,67.50
2023-04-18T10:58:04.110Z,67.50
2023-04-18T10:59:04.098Z,67.50
2023-04-18T11:00:04.112Z,67.50
2023-04-18T11:01:04.148Z,67.50
2023-04-18T11:02:04.278Z,67.50
2023-04-18T11:03:04.268Z,67.50
2023-04-18T11:04:04.158Z,73.12
2023-04-18T11:05:04.127Z,78.75
2023-04-18T11:06:04.134Z,95.62
2023-04-18T11:07:04.187Z,95.62
2023-04-18T11:08:04.034Z,101.25
2023-04-18T11:09:04.051Z,123.75
2023-04-18T11:10:03.981Z,123.75
2023-04-18T11:11:04.224Z,123.75
2023-04-18T11:12:04.140Z,118.12
2023-04-18T11:13:04.050Z,123.75
2023-04-18T11:14:04.012Z,140.62
2023-04-18T11:15:03.929Z,146.25
2023-04-18T11:16:03.962Z,151.88
2023-04-18T11:17:03.917Z,146.25
2023-04-18T11:18:03.998Z,123.75
2023-04-18T11:19:03.874Z,140.62
2023-04-18T11:20:03.850Z,118.12
2023-04-18T11:21:03.906Z,196.88
2023-04-18T11:22:03.857Z,163.12
2023-04-18T11:23:03.863Z,191.25
2023-04-18T11:24:03.893Z,135.00
2023-04-18T11:25:03.855Z,140.62
2023-04-18T11:26:03.966Z,129.38
2023-04-18T11:27:03.796Z,151.88
2023-04-18T11:28:03.826Z,112.50
2023-04-18T11:29:03.782Z,101.25
2023-04-18T11:30:03.833Z,106.88
2023-04-18T11:31:03.753Z,118.12
2023-04-18T11:32:03.820Z,213.75
2023-04-18T11:33:03.804Z,146.25
2023-04-18T11:34:03.819Z,112.50
2023-04-18T11:35:03.702Z,106.88
2023-04-18T11:36:03.936Z,101.25
2023-04-18T11:37:03.862Z,112.50
2023-04-18T11:38:03.700Z,112.50
2023-04-18T11:39:03.668Z,123.75
2023-04-18T11:40:03.652Z,174.38
2023-04-18T11:41:03.719Z,196.88
2023-04-18T11:42:03.690Z,258.75
2023-04-18T11:43:03.651Z,202.50
2023-04-18T11:44:03.587Z,607.50
2023-04-18T11:45:03.611Z,405.00
2023-04-18T11:46:03.697Z,658.12
2023-04-18T11:47:03.863Z,618.75
2023-04-18T11:48:03.616Z,253.12
2023-04-18T11:49:03.549Z,247.50
2023-04-18T11:50:03.604Z,225.00
2023-04-18T11:51:03.583Z,253.12
2023-04-18T11:52:03.531Z,489.38
2023-04-18T11:53:03.514Z,219.38
2023-04-18T11:54:03.594Z,663.75
2023-04-18T11:55:03.477Z,247.50
2023-04-18T11:56:03.469Z,573.75
2023-04-18T11:57:03.529Z,281.25
2023-04-18T11:58:03.484Z,388.12
2023-04-18T11:59:03.504Z,185.62
2023-04-18T12:00:03.425Z,253.12
2023-04-18T12:01:03.440Z,168.75
2023-04-18T12:02:15.565Z,185.62
2023-04-18T12:03:03.870Z,163.12
2023-04-18T12:04:04.162Z,168.75
2023-04-18T12:05:03.596Z,146.25
2023-04-18T12:06:03.562Z,123.75
2023-04-18T12:07:03.357Z,129.38
2023-04-18T12:08:03.387Z,118.12
2023-04-18T12:09:03.328Z,106.88
2023-04-18T12:10:03.335Z,101.25
2023-04-18T12:11:03.297Z,106.88
2023-04-18T12:12:03.337Z,112.50
2023-04-18T12:13:03.309Z,568.12
2023-04-18T12:14:04.157Z,140.62
2023-04-18T12:15:03.496Z,140.62
2023-04-18T12:16:03.310Z,596.25
2023-04-18T12:17:03.370Z,298.12
2023-04-18T12:18:03.324Z,624.38
2023-04-18T12:19:03.234Z,489.38
2023-04-18T12:20:03.315Z,180.00
2023-04-18T12:21:03.494Z,270.00
2023-04-18T12:22:03.256Z,298.12
2023-04-18T12:23:03.197Z,264.38
2023-04-18T12:24:03.206Z,196.88
2023-04-18T12:25:03.143Z,135.00
2023-04-18T12:26:03.174Z,118.12
2023-04-18T12:27:03.126Z,112.50
2023-04-18T12:28:03.155Z,106.88
2023-04-18T12:29:03.141Z,112.50
2023-04-18T12:30:03.112Z,118.12
2023-04-18T12:31:03.164Z,163.12
2023-04-18T12:32:03.285Z,135.00
2023-04-18T12:33:03.108Z,140.62
2023-04-18T12:34:03.227Z,213.75
2023-04-18T12:35:03.043Z,129.38
2023-04-18T12:36:03.035Z,315.00
2023-04-18T12:37:03.003Z,241.88
2023-04-18T12:38:03.121Z,180.00
2023-04-18T12:39:03.119Z,303.75
2023-04-18T12:40:03.057Z,382.50
2023-04-18T12:41:02.973Z,315.00
2023-04-18T12:42:02.978Z,163.12
2023-04-18T12:43:03.923Z,585.00
2023-04-18T12:44:02.975Z,196.88
2023-04-18T12:45:02.990Z,258.75
2023-04-18T12:46:02.982Z,191.25
2023-04-18T12:47:03.046Z,213.75
2023-04-18T12:48:02.961Z,230.62
2023-04-18T12:49:02.947Z,736.88
2023-04-18T12:50:02.887Z,236.25
2023-04-18T12:51:02.865Z,455.62
2023-04-18T12:52:03.109Z,382.50
2023-04-18T12:53:02.849Z,309.38
2023-04-18T12:54:02.851Z,258.75
2023-04-18T12:55:02.838Z,354.38
2023-04-18T12:56:02.844Z,225.00